sensor_id;sensor_type;location;lat;lon;timestamp;P1;durP1;ratioP1;P2;durP2;ratioP2
43682;SDS011;29285;52.128;21.060;2024-02-15T00:03:12;9.90;;;5.70;;
43682;SDS011;29285;52.128;21.060;2024-02-15T00:08:14;10.50;;;5.40;;
43682;SDS011;29285;52.128;21.060;2024-02-15T00:13:16;8.10;;;4.70;;
43682;SDS011;29285;52.128;21.060;2024-02-15T00:18:17;13.20;;;5.50;;
43682;SDS011;29285;52.128;21.060;2024-02-15T00:23:18;7.80;;;5.10;;
43682;SDS011;29285;52.128;21.060;2024-02-15T00:28:19;10.50;;;5.30;;
43682;SDS011;29285;52.128;21.060;2024-02-15T00:33:20;10.80;;;5.50;;
43682;SDS011;29285;52.128;21.060;2024-02-15T00:38:22;9.10;;;4.60;;
43682;SDS011;29285;52.128;21.060;2024-02-15T00:43:26;8.90;;;4.90;;
43682;SDS011;29285;52.128;21.060;2024-02-15T00:48:27;7.30;;;4.90;;
43682;SDS011;29285;52.128;21.060;2024-02-15T00:53:30;9.40;;;5.00;;
43682;SDS011;29285;52.128;21.060;2024-02-15T00:58:31;8.20;;;5.60;;
43682;SDS011;29285;52.128;21.060;2024-02-15T01:03:32;10.50;;;6.30;;
43682;SDS011;29285;52.128;21.060;2024-02-15T01:08:33;8.00;;;5.40;;
43682;SDS011;29285;52.128;21.060;2024-02-15T01:13:35;9.20;;;5.20;;
43682;SDS011;29285;52.128;21.060;2024-02-15T01:18:36;9.00;;;5.80;;
43682;SDS011;29285;52.128;21.060;2024-02-15T01:23:38;10.90;;;5.40;;
43682;SDS011;29285;52.128;21.060;2024-02-15T01:28:40;10.10;;;5.70;;
43682;SDS011;29285;52.128;21.060;2024-02-15T01:33:44;11.20;;;5.90;;
43682;SDS011;29285;52.128;21.060;2024-02-15T01:38:48;8.90;;;5.10;;
43682;SDS011;29285;52.128;21.060;2024-02-15T01:43:49;8.40;;;5.00;;
43682;SDS011;29285;52.128;21.060;2024-02-15T01:48:50;9.80;;;5.90;;
43682;SDS011;29285;52.128;21.060;2024-02-15T01:53:52;12.20;;;6.00;;
43682;SDS011;29285;52.128;21.060;2024-02-15T01:58:55;10.00;;;5.60;;
43682;SDS011;29285;52.128;21.060;2024-02-15T02:03:58;8.60;;;5.30;;
43682;SDS011;29285;52.128;21.060;2024-02-15T02:08:59;9.90;;;5.80;;
43682;SDS011;29285;52.128;21.060;2024-02-15T02:14:02;13.20;;;6.90;;
43682;SDS011;29285;52.128;21.060;2024-02-15T02:19:05;10.40;;;6.40;;
43682;SDS011;29285;52.128;21.060;2024-02-15T02:24:13;11.20;;;6.30;;
43682;SDS011;29285;52.128;21.060;2024-02-15T02:29:18;10.50;;;6.50;;
43682;SDS011;29285;52.128;21.060;2024-02-15T02:34:19;13.10;;;5.80;;
43682;SDS011;29285;52.128;21.060;2024-02-15T02:39:20;14.10;;;6.40;;
43682;SDS011;29285;52.128;21.060;2024-02-15T02:44:23;9.80;;;6.30;;
43682;SDS011;29285;52.128;21.060;2024-02-15T02:49:25;13.30;;;6.20;;
43682;SDS011;29285;52.128;21.060;2024-02-15T02:54:26;11.00;;;6.30;;
43682;SDS011;29285;52.128;21.060;2024-02-15T02:59:27;10.90;;;5.70;;
43682;SDS011;29285;52.128;21.060;2024-02-15T03:04:29;11.10;;;6.40;;
43682;SDS011;29285;52.128;21.060;2024-02-15T03:09:30;11.00;;;5.60;;
43682;SDS011;29285;52.128;21.060;2024-02-15T03:14:31;11.20;;;6.10;;
43682;SDS011;29285;52.128;21.060;2024-02-15T03:19:36;11.90;;;5.60;;
43682;SDS011;29285;52.128;21.060;2024-02-15T03:24:37;11.90;;;5.90;;
43682;SDS011;29285;52.128;21.060;2024-02-15T03:29:38;11.60;;;5.90;;
43682;SDS011;29285;52.128;21.060;2024-02-15T03:34:39;9.00;;;6.10;;
43682;SDS011;29285;52.128;21.060;2024-02-15T03:39:40;12.80;;;6.40;;
43682;SDS011;29285;52.128;21.060;2024-02-15T03:44:41;11.10;;;6.80;;
43682;SDS011;29285;52.128;21.060;2024-02-15T03:49:42;9.40;;;6.30;;
43682;SDS011;29285;52.128;21.060;2024-02-15T03:54:43;11.90;;;6.40;;
43682;SDS011;29285;52.128;21.060;2024-02-15T03:59:44;12.40;;;6.00;;
43682;SDS011;29285;52.128;21.060;2024-02-15T04:04:51;13.00;;;7.10;;
43682;SDS011;29285;52.128;21.060;2024-02-15T04:09:55;11.40;;;5.80;;
43682;SDS011;29285;52.128;21.060;2024-02-15T04:14:56;9.30;;;5.80;;
43682;SDS011;29285;52.128;21.060;2024-02-15T04:20:01;14.00;;;6.40;;
43682;SDS011;29285;52.128;21.060;2024-02-15T04:25:05;10.70;;;6.20;;
43682;SDS011;29285;52.128;21.060;2024-02-15T04:30:07;10.70;;;6.30;;
43682;SDS011;29285;52.128;21.060;2024-02-15T04:35:09;12.30;;;6.90;;
43682;SDS011;29285;52.128;21.060;2024-02-15T04:40:10;11.90;;;6.90;;
43682;SDS011;29285;52.128;21.060;2024-02-15T04:45:14;10.20;;;6.10;;
43682;SDS011;29285;52.128;21.060;2024-02-15T04:50:16;10.40;;;6.40;;
43682;SDS011;29285;52.128;21.060;2024-02-15T04:55:19;12.60;;;7.10;;
43682;SDS011;29285;52.128;21.060;2024-02-15T05:00:21;13.40;;;7.30;;
43682;SDS011;29285;52.128;21.060;2024-02-15T05:05:23;11.00;;;6.50;;
43682;SDS011;29285;52.128;21.060;2024-02-15T05:10:25;9.90;;;6.30;;
43682;SDS011;29285;52.128;21.060;2024-02-15T05:15:26;13.20;;;6.70;;
43682;SDS011;29285;52.128;21.060;2024-02-15T05:20:28;11.10;;;5.80;;
43682;SDS011;29285;52.128;21.060;2024-02-15T05:25:29;11.10;;;6.00;;
43682;SDS011;29285;52.128;21.060;2024-02-15T05:30:33;8.40;;;5.20;;
43682;SDS011;29285;52.128;21.060;2024-02-15T05:35:34;11.40;;;6.10;;
43682;SDS011;29285;52.128;21.060;2024-02-15T05:40:40;12.40;;;6.50;;
43682;SDS011;29285;52.128;21.060;2024-02-15T05:45:41;13.90;;;5.50;;
43682;SDS011;29285;52.128;21.060;2024-02-15T05:50:41;12.10;;;6.40;;
43682;SDS011;29285;52.128;21.060;2024-02-15T05:55:42;9.10;;;5.60;;
43682;SDS011;29285;52.128;21.060;2024-02-15T06:00:45;10.70;;;6.70;;
43682;SDS011;29285;52.128;21.060;2024-02-15T06:05:47;10.90;;;6.90;;
43682;SDS011;29285;52.128;21.060;2024-02-15T06:10:48;12.80;;;7.40;;
43682;SDS011;29285;52.128;21.060;2024-02-15T06:15:51;16.60;;;8.20;;
43682;SDS011;29285;52.128;21.060;2024-02-15T06:26:02;11.60;;;7.50;;
43682;SDS011;29285;52.128;21.060;2024-02-15T06:31:04;14.50;;;8.40;;
43682;SDS011;29285;52.128;21.060;2024-02-15T06:36:24;17.20;;;9.90;;
43682;SDS011;29285;52.128;21.060;2024-02-15T06:41:44;16.00;;;9.70;;
43682;SDS011;29285;52.128;21.060;2024-02-15T06:46:45;14.90;;;9.50;;
43682;SDS011;29285;52.128;21.060;2024-02-15T06:51:47;14.10;;;8.80;;
43682;SDS011;29285;52.128;21.060;2024-02-15T06:56:49;16.40;;;10.60;;
43682;SDS011;29285;52.128;21.060;2024-02-15T07:01:52;16.80;;;10.00;;
43682;SDS011;29285;52.128;21.060;2024-02-15T07:06:53;19.30;;;11.20;;
43682;SDS011;29285;52.128;21.060;2024-02-15T07:11:55;15.80;;;10.00;;
43682;SDS011;29285;52.128;21.060;2024-02-15T07:16:58;18.60;;;10.60;;
43682;SDS011;29285;52.128;21.060;2024-02-15T07:21:59;17.10;;;9.20;;
43682;SDS011;29285;52.128;21.060;2024-02-15T07:27:00;16.80;;;11.70;;
43682;SDS011;29285;52.128;21.060;2024-02-15T07:32:01;17.20;;;11.00;;
43682;SDS011;29285;52.128;21.060;2024-02-15T07:42:07;21.70;;;11.50;;
43682;SDS011;29285;52.128;21.060;2024-02-15T07:47:13;16.50;;;11.40;;
43682;SDS011;29285;52.128;21.060;2024-02-15T07:52:14;19.40;;;11.70;;
43682;SDS011;29285;52.128;21.060;2024-02-15T07:57:15;19.70;;;10.70;;
43682;SDS011;29285;52.128;21.060;2024-02-15T08:02:16;18.30;;;13.20;;
43682;SDS011;29285;52.128;21.060;2024-02-15T08:07:22;19.50;;;12.10;;
43682;SDS011;29285;52.128;21.060;2024-02-15T08:12:24;21.20;;;12.80;;
43682;SDS011;29285;52.128;21.060;2024-02-15T08:17:25;24.90;;;13.70;;
43682;SDS011;29285;52.128;21.060;2024-02-15T08:22:27;20.60;;;13.30;;
43682;SDS011;29285;52.128;21.060;2024-02-15T08:27:27;24.30;;;15.10;;
43682;SDS011;29285;52.128;21.060;2024-02-15T08:32:35;23.70;;;13.40;;
43682;SDS011;29285;52.128;21.060;2024-02-15T08:37:42;23.00;;;14.10;;
43682;SDS011;29285;52.128;21.060;2024-02-15T08:42:48;22.40;;;14.30;;
43682;SDS011;29285;52.128;21.060;2024-02-15T08:47:49;21.20;;;13.60;;
43682;SDS011;29285;52.128;21.060;2024-02-15T08:52:53;23.60;;;14.70;;
43682;SDS011;29285;52.128;21.060;2024-02-15T08:57:56;21.40;;;14.00;;
43682;SDS011;29285;52.128;21.060;2024-02-15T09:02:58;20.90;;;15.30;;
43682;SDS011;29285;52.128;21.060;2024-02-15T09:07:59;25.40;;;15.20;;
43682;SDS011;29285;52.128;21.060;2024-02-15T09:13:00;25.70;;;16.20;;
43682;SDS011;29285;52.128;21.060;2024-02-15T09:18:01;24.60;;;16.40;;
43682;SDS011;29285;52.128;21.060;2024-02-15T09:23:02;21.70;;;14.30;;
43682;SDS011;29285;52.128;21.060;2024-02-15T09:28:10;23.80;;;14.90;;
43682;SDS011;29285;52.128;21.060;2024-02-15T09:33:11;25.70;;;14.80;;
43682;SDS011;29285;52.128;21.060;2024-02-15T09:38:12;25.40;;;14.20;;
43682;SDS011;29285;52.128;21.060;2024-02-15T09:43:17;25.80;;;16.00;;
43682;SDS011;29285;52.128;21.060;2024-02-15T09:48:18;22.60;;;16.00;;
43682;SDS011;29285;52.128;21.060;2024-02-15T09:53:21;22.20;;;14.70;;
43682;SDS011;29285;52.128;21.060;2024-02-15T09:58:29;30.90;;;15.50;;
43682;SDS011;29285;52.128;21.060;2024-02-15T10:03:34;29.00;;;16.20;;
43682;SDS011;29285;52.128;21.060;2024-02-15T10:08:37;23.40;;;15.20;;
43682;SDS011;29285;52.128;21.060;2024-02-15T10:13:39;24.50;;;15.90;;
43682;SDS011;29285;52.128;21.060;2024-02-15T10:18:40;25.70;;;17.10;;
43682;SDS011;29285;52.128;21.060;2024-02-15T10:23:41;22.00;;;16.10;;
43682;SDS011;29285;52.128;21.060;2024-02-15T10:28:42;30.90;;;18.80;;
43682;SDS011;29285;52.128;21.060;2024-02-15T10:33:43;28.80;;;19.20;;
43682;SDS011;29285;52.128;21.060;2024-02-15T10:38:45;26.80;;;17.50;;
43682;SDS011;29285;52.128;21.060;2024-02-15T10:43:46;26.90;;;16.90;;
43682;SDS011;29285;52.128;21.060;2024-02-15T10:48:48;30.80;;;16.90;;
43682;SDS011;29285;52.128;21.060;2024-02-15T10:53:54;25.90;;;16.10;;
43682;SDS011;29285;52.128;21.060;2024-02-15T11:04:08;27.60;;;19.20;;
43682;SDS011;29285;52.128;21.060;2024-02-15T11:09:15;26.50;;;16.50;;
43682;SDS011;29285;52.128;21.060;2024-02-15T11:14:22;29.00;;;17.70;;
43682;SDS011;29285;52.128;21.060;2024-02-15T11:24:47;31.10;;;19.20;;
43682;SDS011;29285;52.128;21.060;2024-02-15T11:35:04;31.10;;;18.90;;
43682;SDS011;29285;52.128;21.060;2024-02-15T11:40:12;31.90;;;18.90;;
43682;SDS011;29285;52.128;21.060;2024-02-15T11:45:14;35.50;;;19.10;;
43682;SDS011;29285;52.128;21.060;2024-02-15T11:50:19;29.30;;;19.30;;
43682;SDS011;29285;52.128;21.060;2024-02-15T11:55:21;30.00;;;18.50;;
43682;SDS011;29285;52.128;21.060;2024-02-15T12:00:23;24.80;;;16.20;;
43682;SDS011;29285;52.128;21.060;2024-02-15T12:05:43;30.20;;;18.50;;
43682;SDS011;29285;52.128;21.060;2024-02-15T12:11:03;26.40;;;17.50;;
43682;SDS011;29285;52.128;21.060;2024-02-15T12:16:22;24.60;;;17.30;;
43682;SDS011;29285;52.128;21.060;2024-02-15T12:21:42;27.70;;;17.70;;
43682;SDS011;29285;52.128;21.060;2024-02-15T12:26:43;26.40;;;17.80;;
43682;SDS011;29285;52.128;21.060;2024-02-15T12:31:46;26.10;;;15.80;;
43682;SDS011;29285;52.128;21.060;2024-02-15T12:36:48;28.70;;;18.80;;
43682;SDS011;29285;52.128;21.060;2024-02-15T12:41:50;24.50;;;16.70;;
43682;SDS011;29285;52.128;21.060;2024-02-15T12:46:54;22.40;;;16.70;;
43682;SDS011;29285;52.128;21.060;2024-02-15T12:57:40;24.00;;;16.10;;
43682;SDS011;29285;52.128;21.060;2024-02-15T13:02:52;22.40;;;14.40;;
43682;SDS011;29285;52.128;21.060;2024-02-15T13:07:54;24.60;;;15.40;;
43682;SDS011;29285;52.128;21.060;2024-02-15T13:12:59;19.40;;;14.20;;
43682;SDS011;29285;52.128;21.060;2024-02-15T13:18:00;24.00;;;14.70;;
43682;SDS011;29285;52.128;21.060;2024-02-15T13:28:11;21.30;;;12.50;;
43682;SDS011;29285;52.128;21.060;2024-02-15T13:33:13;26.10;;;15.70;;
43682;SDS011;29285;52.128;21.060;2024-02-15T13:38:15;24.20;;;14.90;;
43682;SDS011;29285;52.128;21.060;2024-02-15T13:43:23;29.60;;;16.60;;
43682;SDS011;29285;52.128;21.060;2024-02-15T13:48:24;25.00;;;15.80;;
43682;SDS011;29285;52.128;21.060;2024-02-15T13:53:30;32.70;;;17.30;;
43682;SDS011;29285;52.128;21.060;2024-02-15T13:58:31;23.70;;;15.00;;
43682;SDS011;29285;52.128;21.060;2024-02-15T14:03:32;25.80;;;14.60;;
43682;SDS011;29285;52.128;21.060;2024-02-15T14:08:34;23.40;;;14.10;;
43682;SDS011;29285;52.128;21.060;2024-02-15T14:13:35;24.50;;;15.30;;
43682;SDS011;29285;52.128;21.060;2024-02-15T14:18:36;23.70;;;15.00;;
43682;SDS011;29285;52.128;21.060;2024-02-15T14:23:38;27.20;;;15.80;;
43682;SDS011;29285;52.128;21.060;2024-02-15T14:28:39;25.20;;;15.70;;
43682;SDS011;29285;52.128;21.060;2024-02-15T14:33:42;25.10;;;15.60;;
43682;SDS011;29285;52.128;21.060;2024-02-15T14:38:43;25.60;;;15.00;;
43682;SDS011;29285;52.128;21.060;2024-02-15T14:43:45;26.50;;;16.60;;
43682;SDS011;29285;52.128;21.060;2024-02-15T14:48:46;23.60;;;14.90;;
43682;SDS011;29285;52.128;21.060;2024-02-15T14:53:48;21.80;;;14.20;;
43682;SDS011;29285;52.128;21.060;2024-02-15T14:58:50;24.80;;;14.60;;
43682;SDS011;29285;52.128;21.060;2024-02-15T15:03:54;23.10;;;14.30;;
43682;SDS011;29285;52.128;21.060;2024-02-15T15:08:56;23.90;;;15.70;;
43682;SDS011;29285;52.128;21.060;2024-02-15T15:14:15;25.90;;;16.00;;
43682;SDS011;29285;52.128;21.060;2024-02-15T15:19:18;24.40;;;14.10;;
43682;SDS011;29285;52.128;21.060;2024-02-15T15:24:18;20.80;;;15.00;;
43682;SDS011;29285;52.128;21.060;2024-02-15T15:29:22;25.80;;;14.60;;
43682;SDS011;29285;52.128;21.060;2024-02-15T15:34:23;26.40;;;16.30;;
43682;SDS011;29285;52.128;21.060;2024-02-15T15:39:24;25.70;;;15.40;;
43682;SDS011;29285;52.128;21.060;2024-02-15T15:44:26;21.00;;;15.40;;
43682;SDS011;29285;52.128;21.060;2024-02-15T15:49:28;23.30;;;16.00;;
43682;SDS011;29285;52.128;21.060;2024-02-15T15:54:30;23.80;;;15.10;;
43682;SDS011;29285;52.128;21.060;2024-02-15T15:59:31;22.40;;;14.40;;
43682;SDS011;29285;52.128;21.060;2024-02-15T16:04:33;25.60;;;16.20;;
43682;SDS011;29285;52.128;21.060;2024-02-15T16:09:34;22.20;;;15.00;;
43682;SDS011;29285;52.128;21.060;2024-02-15T16:14:35;24.40;;;13.90;;
43682;SDS011;29285;52.128;21.060;2024-02-15T16:19:40;22.00;;;13.80;;
43682;SDS011;29285;52.128;21.060;2024-02-15T16:24:43;19.70;;;12.00;;
43682;SDS011;29285;52.128;21.060;2024-02-15T16:29:44;19.80;;;12.80;;
43682;SDS011;29285;52.128;21.060;2024-02-15T16:34:45;22.40;;;13.60;;
43682;SDS011;29285;52.128;21.060;2024-02-15T16:39:46;21.70;;;12.10;;
43682;SDS011;29285;52.128;21.060;2024-02-15T16:44:47;21.40;;;12.50;;
43682;SDS011;29285;52.128;21.060;2024-02-15T16:49:49;20.20;;;12.50;;
43682;SDS011;29285;52.128;21.060;2024-02-15T16:54:50;16.90;;;12.00;;
43682;SDS011;29285;52.128;21.060;2024-02-15T16:59:51;19.30;;;12.00;;
43682;SDS011;29285;52.128;21.060;2024-02-15T17:04:52;17.80;;;11.70;;
43682;SDS011;29285;52.128;21.060;2024-02-15T17:09:53;19.50;;;12.30;;
43682;SDS011;29285;52.128;21.060;2024-02-15T17:14:55;21.60;;;14.10;;
43682;SDS011;29285;52.128;21.060;2024-02-15T17:19:56;18.70;;;12.00;;
43682;SDS011;29285;52.128;21.060;2024-02-15T17:24:58;21.50;;;13.40;;
43682;SDS011;29285;52.128;21.060;2024-02-15T17:29:59;19.20;;;12.20;;
43682;SDS011;29285;52.128;21.060;2024-02-15T17:35:01;20.40;;;13.40;;
43682;SDS011;29285;52.128;21.060;2024-02-15T17:40:02;20.40;;;12.30;;
43682;SDS011;29285;52.128;21.060;2024-02-15T17:45:04;26.00;;;16.50;;
43682;SDS011;29285;52.128;21.060;2024-02-15T17:50:09;21.70;;;14.40;;
43682;SDS011;29285;52.128;21.060;2024-02-15T17:55:11;20.80;;;14.40;;
43682;SDS011;29285;52.128;21.060;2024-02-15T18:00:13;24.30;;;14.60;;
43682;SDS011;29285;52.128;21.060;2024-02-15T18:05:16;21.70;;;14.40;;
43682;SDS011;29285;52.128;21.060;2024-02-15T18:10:18;22.20;;;13.70;;
43682;SDS011;29285;52.128;21.060;2024-02-15T18:15:22;22.20;;;14.20;;
43682;SDS011;29285;52.128;21.060;2024-02-15T18:20:29;25.30;;;15.20;;
43682;SDS011;29285;52.128;21.060;2024-02-15T18:25:31;23.20;;;14.90;;
43682;SDS011;29285;52.128;21.060;2024-02-15T18:30:32;23.50;;;15.40;;
43682;SDS011;29285;52.128;21.060;2024-02-15T18:35:34;24.30;;;15.20;;
43682;SDS011;29285;52.128;21.060;2024-02-15T18:40:40;24.30;;;16.40;;
43682;SDS011;29285;52.128;21.060;2024-02-15T18:45:41;23.30;;;15.50;;
43682;SDS011;29285;52.128;21.060;2024-02-15T18:50:43;24.50;;;14.80;;
43682;SDS011;29285;52.128;21.060;2024-02-15T18:55:45;27.70;;;15.50;;
43682;SDS011;29285;52.128;21.060;2024-02-15T19:00:46;21.60;;;14.10;;
43682;SDS011;29285;52.128;21.060;2024-02-15T19:05:47;25.80;;;15.40;;
43682;SDS011;29285;52.128;21.060;2024-02-15T19:10:48;23.20;;;14.30;;
43682;SDS011;29285;52.128;21.060;2024-02-15T19:15:49;24.30;;;15.10;;
43682;SDS011;29285;52.128;21.060;2024-02-15T19:20:55;23.90;;;13.80;;
43682;SDS011;29285;52.128;21.060;2024-02-15T19:25:56;26.00;;;16.60;;
43682;SDS011;29285;52.128;21.060;2024-02-15T19:30:57;25.00;;;14.30;;
43682;SDS011;29285;52.128;21.060;2024-02-15T19:35:59;20.80;;;15.20;;
43682;SDS011;29285;52.128;21.060;2024-02-15T19:41:00;23.90;;;14.30;;
43682;SDS011;29285;52.128;21.060;2024-02-15T19:46:01;22.00;;;15.10;;
43682;SDS011;29285;52.128;21.060;2024-02-15T19:51:04;23.60;;;15.60;;
43682;SDS011;29285;52.128;21.060;2024-02-15T19:56:05;24.20;;;14.20;;
43682;SDS011;29285;52.128;21.060;2024-02-15T20:01:08;24.70;;;15.10;;
43682;SDS011;29285;52.128;21.060;2024-02-15T20:06:14;25.30;;;15.50;;
43682;SDS011;29285;52.128;21.060;2024-02-15T20:11:15;24.70;;;16.10;;
43682;SDS011;29285;52.128;21.060;2024-02-15T20:16:17;28.00;;;15.60;;
43682;SDS011;29285;52.128;21.060;2024-02-15T20:21:22;25.90;;;16.70;;
43682;SDS011;29285;52.128;21.060;2024-02-15T20:26:23;27.40;;;15.60;;
43682;SDS011;29285;52.128;21.060;2024-02-15T20:31:27;27.40;;;17.60;;
43682;SDS011;29285;52.128;21.060;2024-02-15T20:41:34;27.40;;;15.10;;
43682;SDS011;29285;52.128;21.060;2024-02-15T20:46:35;25.80;;;15.30;;
43682;SDS011;29285;52.128;21.060;2024-02-15T20:51:36;27.80;;;18.20;;
43682;SDS011;29285;52.128;21.060;2024-02-15T20:56:38;27.90;;;17.50;;
43682;SDS011;29285;52.128;21.060;2024-02-15T21:01:41;27.50;;;15.60;;
43682;SDS011;29285;52.128;21.060;2024-02-15T21:06:42;25.00;;;15.70;;
43682;SDS011;29285;52.128;21.060;2024-02-15T21:11:43;26.30;;;16.80;;
43682;SDS011;29285;52.128;21.060;2024-02-15T21:16:44;25.80;;;15.90;;
43682;SDS011;29285;52.128;21.060;2024-02-15T21:21:47;26.20;;;15.80;;
43682;SDS011;29285;52.128;21.060;2024-02-15T21:26:49;24.20;;;15.80;;
43682;SDS011;29285;52.128;21.060;2024-02-15T21:31:50;26.40;;;15.10;;
43682;SDS011;29285;52.128;21.060;2024-02-15T21:36:51;25.10;;;16.30;;
43682;SDS011;29285;52.128;21.060;2024-02-15T21:41:52;27.70;;;16.30;;
43682;SDS011;29285;52.128;21.060;2024-02-15T21:46:53;28.50;;;17.30;;
43682;SDS011;29285;52.128;21.060;2024-02-15T21:51:54;24.70;;;17.00;;
43682;SDS011;29285;52.128;21.060;2024-02-15T21:56:56;25.80;;;16.80;;
43682;SDS011;29285;52.128;21.060;2024-02-15T22:01:57;23.80;;;15.70;;
43682;SDS011;29285;52.128;21.060;2024-02-15T22:06:58;27.30;;;16.60;;
43682;SDS011;29285;52.128;21.060;2024-02-15T22:11:59;25.60;;;17.40;;
43682;SDS011;29285;52.128;21.060;2024-02-15T22:17:00;23.50;;;15.50;;
43682;SDS011;29285;52.128;21.060;2024-02-15T22:22:02;25.80;;;15.00;;
43682;SDS011;29285;52.128;21.060;2024-02-15T22:27:03;25.50;;;15.50;;
43682;SDS011;29285;52.128;21.060;2024-02-15T22:32:05;25.60;;;16.00;;
43682;SDS011;29285;52.128;21.060;2024-02-15T22:37:07;26.00;;;15.40;;
43682;SDS011;29285;52.128;21.060;2024-02-15T22:42:08;26.70;;;17.20;;
43682;SDS011;29285;52.128;21.060;2024-02-15T22:47:11;22.30;;;14.20;;
43682;SDS011;29285;52.128;21.060;2024-02-15T22:52:12;24.30;;;15.00;;
43682;SDS011;29285;52.128;21.060;2024-02-15T22:57:16;22.30;;;14.00;;
43682;SDS011;29285;52.128;21.060;2024-02-15T23:02:17;23.90;;;15.80;;
43682;SDS011;29285;52.128;21.060;2024-02-15T23:07:18;25.60;;;16.10;;
43682;SDS011;29285;52.128;21.060;2024-02-15T23:12:20;26.50;;;15.70;;
43682;SDS011;29285;52.128;21.060;2024-02-15T23:17:21;23.80;;;14.10;;
43682;SDS011;29285;52.128;21.060;2024-02-15T23:22:25;20.70;;;13.80;;
43682;SDS011;29285;52.128;21.060;2024-02-15T23:27:26;23.70;;;13.80;;
43682;SDS011;29285;52.128;21.060;2024-02-15T23:32:28;20.70;;;13.10;;
43682;SDS011;29285;52.128;21.060;2024-02-15T23:37:30;20.80;;;12.50;;
43682;SDS011;29285;52.128;21.060;2024-02-15T23:42:50;18.20;;;11.60;;
43682;SDS011;29285;52.128;21.060;2024-02-15T23:47:52;21.20;;;12.30;;
43682;SDS011;29285;52.128;21.060;2024-02-15T23:52:54;15.90;;;10.80;;
43682;SDS011;29285;52.128;21.060;2024-02-15T23:57:55;18.00;;;12.20;;
